sensor_id;sensor_type;location;lat;lon;timestamp;temperature;humidity
7496;DHT22;3789;47.064;15.482;2023-11-19T00:02:05;3.30;99.90
7496;DHT22;3789;47.064;15.482;2023-11-19T00:04:39;3.40;99.90
7496;DHT22;3789;47.064;15.482;2023-11-19T00:07:07;3.30;99.90
7496;DHT22;3789;47.064;15.482;2023-11-19T00:09:48;3.40;99.90
7496;DHT22;3789;47.064;15.482;2023-11-19T00:12:20;3.10;99.90
7496;DHT22;3789;47.064;15.482;2023-11-19T00:14:57;3.10;99.90
7496;DHT22;3789;47.064;15.482;2023-11-19T00:17:27;3.00;99.90
7496;DHT22;3789;47.064;15.482;2023-11-19T00:20:01;3.20;99.90
7496;DHT22;3789;47.064;15.482;2023-11-19T00:22:37;3.40;99.90
7496;DHT22;3789;47.064;15.482;2023-11-19T00:25:20;3.40;99.90
7496;DHT22;3789;47.064;15.482;2023-11-19T00:28:01;3.30;99.90
7496;DHT22;3789;47.064;15.482;2023-11-19T00:30:31;3.10;99.90
7496;DHT22;3789;47.064;15.482;2023-11-19T00:33:00;3.00;99.90
7496;DHT22;3789;47.064;15.482;2023-11-19T00:35:33;2.90;99.90
7496;DHT22;3789;47.064;15.482;2023-11-19T00:38:02;2.90;99.90
7496;DHT22;3789;47.064;15.482;2023-11-19T00:40:42;2.80;99.90
7496;DHT22;3789;47.064;15.482;2023-11-19T00:43:20;2.80;99.90
7496;DHT22;3789;47.064;15.482;2023-11-19T00:45:52;2.70;99.90
7496;DHT22;3789;47.064;15.482;2023-11-19T00:48:25;2.60;99.90
7496;DHT22;3789;47.064;15.482;2023-11-19T00:50:56;2.60;99.90
7496;DHT22;3789;47.064;15.482;2023-11-19T00:53:26;2.60;99.90
7496;DHT22;3789;47.064;15.482;2023-11-19T00:56:04;2.80;99.90
7496;DHT22;3789;47.064;15.482;2023-11-19T00:58:33;2.80;99.90
7496;DHT22;3789;47.064;15.482;2023-11-19T01:01:09;2.80;99.90
7496;DHT22;3789;47.064;15.482;2023-11-19T01:03:40;2.90;99.90
7496;DHT22;3789;47.064;15.482;2023-11-19T01:06:29;2.90;99.90
7496;DHT22;3789;47.064;15.482;2023-11-19T01:09:01;3.00;99.90
7496;DHT22;3789;47.064;15.482;2023-11-19T01:11:31;2.90;99.90
7496;DHT22;3789;47.064;15.482;2023-11-19T01:13:59;2.80;99.90
7496;DHT22;3789;47.064;15.482;2023-11-19T01:16:29;2.80;99.90
7496;DHT22;3789;47.064;15.482;2023-11-19T01:19:01;2.80;99.90
7496;DHT22;3789;47.064;15.482;2023-11-19T01:21:46;2.90;99.90
7496;DHT22;3789;47.064;15.482;2023-11-19T01:24:22;2.90;99.90
7496;DHT22;3789;47.064;15.482;2023-11-19T01:26:57;2.80;99.90
7496;DHT22;3789;47.064;15.482;2023-11-19T01:29:35;2.90;99.90
7496;DHT22;3789;47.064;15.482;2023-11-19T01:32:08;2.70;99.90
7496;DHT22;3789;47.064;15.482;2023-11-19T01:34:41;2.70;99.90
7496;DHT22;3789;47.064;15.482;2023-11-19T01:37:12;2.60;99.90
7496;DHT22;3789;47.064;15.482;2023-11-19T01:39:47;2.60;99.90
7496;DHT22;3789;47.064;15.482;2023-11-19T01:42:21;2.60;99.90
7496;DHT22;3789;47.064;15.482;2023-11-19T01:44:58;2.60;99.90
7496;DHT22;3789;47.064;15.482;2023-11-19T01:47:43;2.50;99.90
7496;DHT22;3789;47.064;15.482;2023-11-19T01:50:13;2.50;99.90
7496;DHT22;3789;47.064;15.482;2023-11-19T01:52:54;2.50;99.90
7496;DHT22;3789;47.064;15.482;2023-11-19T01:55:28;2.40;99.90
7496;DHT22;3789;47.064;15.482;2023-11-19T01:58:08;2.40;99.90
7496;DHT22;3789;47.064;15.482;2023-11-19T02:00:45;2.40;99.90
7496;DHT22;3789;47.064;15.482;2023-11-19T02:03:14;2.30;99.90
7496;DHT22;3789;47.064;15.482;2023-11-19T02:05:49;2.30;99.90
7496;DHT22;3789;47.064;15.482;2023-11-19T02:08:19;2.30;99.90
7496;DHT22;3789;47.064;15.482;2023-11-19T02:10:50;2.20;99.90
7496;DHT22;3789;47.064;15.482;2023-11-19T02:13:25;2.20;99.90
7496;DHT22;3789;47.064;15.482;2023-11-19T02:16:02;2.20;99.90
7496;DHT22;3789;47.064;15.482;2023-11-19T02:18:36;2.20;99.90
7496;DHT22;3789;47.064;15.482;2023-11-19T02:21:13;2.20;99.90
7496;DHT22;3789;47.064;15.482;2023-11-19T02:23:43;2.20;99.90
7496;DHT22;3789;47.064;15.482;2023-11-19T02:26:38;2.10;99.90
7496;DHT22;3789;47.064;15.482;2023-11-19T02:29:15;2.00;99.90
7496;DHT22;3789;47.064;15.482;2023-11-19T02:31:47;2.00;99.90
7496;DHT22;3789;47.064;15.482;2023-11-19T02:34:17;2.00;99.90
7496;DHT22;3789;47.064;15.482;2023-11-19T02:36:46;2.00;99.90
7496;DHT22;3789;47.064;15.482;2023-11-19T02:39:16;1.90;99.90
7496;DHT22;3789;47.064;15.482;2023-11-19T02:41:49;2.00;99.90
7496;DHT22;3789;47.064;15.482;2023-11-19T02:44:21;2.00;99.90
7496;DHT22;3789;47.064;15.482;2023-11-19T02:46:51;2.00;99.90
7496;DHT22;3789;47.064;15.482;2023-11-19T02:49:21;2.00;99.90
7496;DHT22;3789;47.064;15.482;2023-11-19T02:51:57;1.90;99.90
7496;DHT22;3789;47.064;15.482;2023-11-19T02:54:34;1.90;99.90
7496;DHT22;3789;47.064;15.482;2023-11-19T02:57:12;1.90;99.90
7496;DHT22;3789;47.064;15.482;2023-11-19T02:59:43;1.80;99.90
7496;DHT22;3789;47.064;15.482;2023-11-19T03:02:12;1.90;99.90
7496;DHT22;3789;47.064;15.482;2023-11-19T03:04:45;1.90;99.90
7496;DHT22;3789;47.064;15.482;2023-11-19T03:07:15;1.90;99.90
7496;DHT22;3789;47.064;15.482;2023-11-19T03:09:49;1.90;99.90
7496;DHT22;3789;47.064;15.482;2023-11-19T03:12:27;1.90;99.90
7496;DHT22;3789;47.064;15.482;2023-11-19T03:14:57;1.90;99.90
7496;DHT22;3789;47.064;15.482;2023-11-19T03:17:27;2.00;99.90
7496;DHT22;3789;47.064;15.482;2023-11-19T03:20:07;1.90;99.90
7496;DHT22;3789;47.064;15.482;2023-11-19T03:22:46;1.90;99.90
7496;DHT22;3789;47.064;15.482;2023-11-19T03:25:21;1.90;99.90
7496;DHT22;3789;47.064;15.482;2023-11-19T03:27:59;1.90;99.90
7496;DHT22;3789;47.064;15.482;2023-11-19T03:30:32;1.80;99.90
7496;DHT22;3789;47.064;15.482;2023-11-19T03:33:04;1.80;99.90
7496;DHT22;3789;47.064;15.482;2023-11-19T03:35:48;1.80;99.90
7496;DHT22;3789;47.064;15.482;2023-11-19T03:38:18;1.80;99.90
7496;DHT22;3789;47.064;15.482;2023-11-19T03:40:45;1.80;99.90
7496;DHT22;3789;47.064;15.482;2023-11-19T03:43:15;1.80;99.90
7496;DHT22;3789;47.064;15.482;2023-11-19T03:45:46;1.80;99.90
7496;DHT22;3789;47.064;15.482;2023-11-19T03:48:15;1.80;99.90
7496;DHT22;3789;47.064;15.482;2023-11-19T03:50:48;1.70;99.90
7496;DHT22;3789;47.064;15.482;2023-11-19T03:53:19;1.80;99.90
7496;DHT22;3789;47.064;15.482;2023-11-19T03:55:50;1.80;99.90
7496;DHT22;3789;47.064;15.482;2023-11-19T03:58:29;1.80;99.90
7496;DHT22;3789;47.064;15.482;2023-11-19T04:01:01;1.80;99.90
7496;DHT22;3789;47.064;15.482;2023-11-19T04:03:32;1.70;99.90
7496;DHT22;3789;47.064;15.482;2023-11-19T04:06:02;1.80;99.90
7496;DHT22;3789;47.064;15.482;2023-11-19T04:08:34;1.80;99.90
7496;DHT22;3789;47.064;15.482;2023-11-19T04:11:06;1.80;99.90
7496;DHT22;3789;47.064;15.482;2023-11-19T04:13:40;1.80;99.90
7496;DHT22;3789;47.064;15.482;2023-11-19T04:16:10;1.80;99.90
7496;DHT22;3789;47.064;15.482;2023-11-19T04:18:38;1.80;99.90
7496;DHT22;3789;47.064;15.482;2023-11-19T04:21:10;1.80;99.90
7496;DHT22;3789;47.064;15.482;2023-11-19T04:23:40;1.80;99.90
7496;DHT22;3789;47.064;15.482;2023-11-19T04:26:20;1.90;99.90
7496;DHT22;3789;47.064;15.482;2023-11-19T04:28:50;1.80;99.90
7496;DHT22;3789;47.064;15.482;2023-11-19T04:31:20;1.90;99.90
7496;DHT22;3789;47.064;15.482;2023-11-19T04:33:49;1.90;99.90
7496;DHT22;3789;47.064;15.482;2023-11-19T04:36:21;1.90;99.90
7496;DHT22;3789;47.064;15.482;2023-11-19T04:39:05;2.00;99.90
7496;DHT22;3789;47.064;15.482;2023-11-19T04:41:52;1.90;99.90
7496;DHT22;3789;47.064;15.482;2023-11-19T04:44:24;2.00;99.90
7496;DHT22;3789;47.064;15.482;2023-11-19T04:46:53;2.00;99.90
7496;DHT22;3789;47.064;15.482;2023-11-19T04:49:24;2.00;99.90
7496;DHT22;3789;47.064;15.482;2023-11-19T04:51:54;2.20;99.90
7496;DHT22;3789;47.064;15.482;2023-11-19T04:54:25;2.20;99.90
7496;DHT22;3789;47.064;15.482;2023-11-19T04:56:56;2.20;99.90
7496;DHT22;3789;47.064;15.482;2023-11-19T04:59:26;2.10;99.90
7496;DHT22;3789;47.064;15.482;2023-11-19T05:01:59;2.20;99.90
7496;DHT22;3789;47.064;15.482;2023-11-19T05:04:33;2.20;99.90
7496;DHT22;3789;47.064;15.482;2023-11-19T05:07:03;2.10;99.90
7496;DHT22;3789;47.064;15.482;2023-11-19T05:09:33;2.00;99.90
7496;DHT22;3789;47.064;15.482;2023-11-19T05:12:03;2.00;99.90
7496;DHT22;3789;47.064;15.482;2023-11-19T05:14:41;1.90;99.90
7496;DHT22;3789;47.064;15.482;2023-11-19T05:17:21;1.90;99.90
7496;DHT22;3789;47.064;15.482;2023-11-19T05:19:52;2.00;99.90
7496;DHT22;3789;47.064;15.482;2023-11-19T05:22:24;2.00;99.90
7496;DHT22;3789;47.064;15.482;2023-11-19T05:25:04;1.90;99.90
7496;DHT22;3789;47.064;15.482;2023-11-19T05:27:38;2.20;99.90
7496;DHT22;3789;47.064;15.482;2023-11-19T05:30:22;2.20;99.90
7496;DHT22;3789;47.064;15.482;2023-11-19T05:32:53;2.00;99.90
7496;DHT22;3789;47.064;15.482;2023-11-19T05:35:34;1.80;99.90
7496;DHT22;3789;47.064;15.482;2023-11-19T05:38:06;1.70;99.90
7496;DHT22;3789;47.064;15.482;2023-11-19T05:40:35;1.70;99.90
7496;DHT22;3789;47.064;15.482;2023-11-19T05:43:04;1.90;99.90
7496;DHT22;3789;47.064;15.482;2023-11-19T05:45:38;2.10;99.90
7496;DHT22;3789;47.064;15.482;2023-11-19T05:48:06;2.20;99.90
7496;DHT22;3789;47.064;15.482;2023-11-19T05:50:35;2.20;99.90
7496;DHT22;3789;47.064;15.482;2023-11-19T05:53:05;2.30;99.90
7496;DHT22;3789;47.064;15.482;2023-11-19T05:55:39;2.30;99.90
7496;DHT22;3789;47.064;15.482;2023-11-19T05:58:27;2.10;99.90
7496;DHT22;3789;47.064;15.482;2023-11-19T06:01:00;1.80;99.90
7496;DHT22;3789;47.064;15.482;2023-11-19T06:03:33;1.90;99.90
7496;DHT22;3789;47.064;15.482;2023-11-19T06:06:07;1.80;99.90
7496;DHT22;3789;47.064;15.482;2023-11-19T06:08:35;1.80;99.90
7496;DHT22;3789;47.064;15.482;2023-11-19T06:11:09;1.80;99.90
7496;DHT22;3789;47.064;15.482;2023-11-19T06:13:57;2.10;99.90
7496;DHT22;3789;47.064;15.482;2023-11-19T06:16:26;2.10;99.90
7496;DHT22;3789;47.064;15.482;2023-11-19T06:18:55;1.90;99.90
7496;DHT22;3789;47.064;15.482;2023-11-19T06:21:26;2.00;99.90
7496;DHT22;3789;47.064;15.482;2023-11-19T06:23:56;2.10;99.90
7496;DHT22;3789;47.064;15.482;2023-11-19T06:26:29;2.10;99.90
7496;DHT22;3789;47.064;15.482;2023-11-19T06:29:05;2.20;99.90
7496;DHT22;3789;47.064;15.482;2023-11-19T06:31:36;2.10;99.90
7496;DHT22;3789;47.064;15.482;2023-11-19T06:34:10;2.20;99.90
7496;DHT22;3789;47.064;15.482;2023-11-19T06:36:50;2.20;99.90
7496;DHT22;3789;47.064;15.482;2023-11-19T06:39:20;2.20;99.90
7496;DHT22;3789;47.064;15.482;2023-11-19T06:41:51;2.20;99.90
7496;DHT22;3789;47.064;15.482;2023-11-19T06:44:23;2.20;99.90
7496;DHT22;3789;47.064;15.482;2023-11-19T06:46:55;2.20;99.90
7496;DHT22;3789;47.064;15.482;2023-11-19T06:49:25;2.30;99.90
7496;DHT22;3789;47.064;15.482;2023-11-19T06:52:00;2.40;99.90
7496;DHT22;3789;47.064;15.482;2023-11-19T06:54:31;2.40;99.90
7496;DHT22;3789;47.064;15.482;2023-11-19T06:57:01;2.60;99.90
7496;DHT22;3789;47.064;15.482;2023-11-19T06:59:33;2.60;99.90
7496;DHT22;3789;47.064;15.482;2023-11-19T07:02:03;2.70;99.90
7496;DHT22;3789;47.064;15.482;2023-11-19T07:04:36;2.80;99.90
7496;DHT22;3789;47.064;15.482;2023-11-19T07:07:08;2.90;99.90
7496;DHT22;3789;47.064;15.482;2023-11-19T07:09:38;2.90;99.90
7496;DHT22;3789;47.064;15.482;2023-11-19T07:12:15;2.90;99.90
7496;DHT22;3789;47.064;15.482;2023-11-19T07:14:48;2.90;99.90
7496;DHT22;3789;47.064;15.482;2023-11-19T07:17:19;2.90;99.90
7496;DHT22;3789;47.064;15.482;2023-11-19T07:19:50;2.90;99.90
7496;DHT22;3789;47.064;15.482;2023-11-19T07:22:28;2.90;99.90
7496;DHT22;3789;47.064;15.482;2023-11-19T07:25:01;3.10;99.90
7496;DHT22;3789;47.064;15.482;2023-11-19T07:27:30;3.20;99.90
7496;DHT22;3789;47.064;15.482;2023-11-19T07:29:59;3.30;99.90
7496;DHT22;3789;47.064;15.482;2023-11-19T07:32:37;3.50;99.90
7496;DHT22;3789;47.064;15.482;2023-11-19T07:35:08;3.50;99.90
7496;DHT22;3789;47.064;15.482;2023-11-19T07:37:39;3.50;99.90
7496;DHT22;3789;47.064;15.482;2023-11-19T07:40:11;3.40;99.90
7496;DHT22;3789;47.064;15.482;2023-11-19T07:42:40;3.30;99.90
7496;DHT22;3789;47.064;15.482;2023-11-19T07:45:08;3.20;99.90
7496;DHT22;3789;47.064;15.482;2023-11-19T07:47:46;3.20;99.90
7496;DHT22;3789;47.064;15.482;2023-11-19T07:50:15;3.20;99.90
7496;DHT22;3789;47.064;15.482;2023-11-19T07:52:51;3.10;99.90
7496;DHT22;3789;47.064;15.482;2023-11-19T07:55:21;3.10;99.90
7496;DHT22;3789;47.064;15.482;2023-11-19T07:57:49;3.10;99.90
7496;DHT22;3789;47.064;15.482;2023-11-19T08:00:22;3.10;99.90
7496;DHT22;3789;47.064;15.482;2023-11-19T08:02:52;3.30;99.90
7496;DHT22;3789;47.064;15.482;2023-11-19T08:05:25;3.40;99.90
7496;DHT22;3789;47.064;15.482;2023-11-19T08:08:05;3.50;99.90
7496;DHT22;3789;47.064;15.482;2023-11-19T08:10:46;3.50;99.90
7496;DHT22;3789;47.064;15.482;2023-11-19T08:13:17;3.40;99.90
7496;DHT22;3789;47.064;15.482;2023-11-19T08:15:49;3.50;99.90
7496;DHT22;3789;47.064;15.482;2023-11-19T08:18:24;3.60;99.90
7496;DHT22;3789;47.064;15.482;2023-11-19T08:20:53;3.60;99.90
7496;DHT22;3789;47.064;15.482;2023-11-19T08:23:22;3.70;99.90
7496;DHT22;3789;47.064;15.482;2023-11-19T08:25:56;3.90;99.90
7496;DHT22;3789;47.064;15.482;2023-11-19T08:28:24;3.90;99.90
7496;DHT22;3789;47.064;15.482;2023-11-19T08:31:11;3.90;99.90
7496;DHT22;3789;47.064;15.482;2023-11-19T08:33:39;4.00;99.90
7496;DHT22;3789;47.064;15.482;2023-11-19T08:36:15;4.10;99.90
7496;DHT22;3789;47.064;15.482;2023-11-19T08:38:48;4.30;99.90
7496;DHT22;3789;47.064;15.482;2023-11-19T08:41:22;4.50;99.90
7496;DHT22;3789;47.064;15.482;2023-11-19T08:43:53;4.60;99.90
7496;DHT22;3789;47.064;15.482;2023-11-19T08:46:33;4.60;99.90
7496;DHT22;3789;47.064;15.482;2023-11-19T08:49:02;4.70;99.90
7496;DHT22;3789;47.064;15.482;2023-11-19T08:51:32;4.60;99.90
7496;DHT22;3789;47.064;15.482;2023-11-19T08:54:00;4.60;99.90
7496;DHT22;3789;47.064;15.482;2023-11-19T08:56:31;4.60;99.90
7496;DHT22;3789;47.064;15.482;2023-11-19T08:59:08;4.50;99.90
7496;DHT22;3789;47.064;15.482;2023-11-19T09:01:45;4.50;99.90
7496;DHT22;3789;47.064;15.482;2023-11-19T09:04:22;4.70;99.90
7496;DHT22;3789;47.064;15.482;2023-11-19T09:06:52;4.70;99.90
7496;DHT22;3789;47.064;15.482;2023-11-19T09:09:21;4.80;99.90
7496;DHT22;3789;47.064;15.482;2023-11-19T09:11:58;4.90;99.90
7496;DHT22;3789;47.064;15.482;2023-11-19T09:14:28;5.10;99.90
7496;DHT22;3789;47.064;15.482;2023-11-19T09:16:58;5.40;99.90
7496;DHT22;3789;47.064;15.482;2023-11-19T09:19:28;5.60;99.90
7496;DHT22;3789;47.064;15.482;2023-11-19T09:22:03;5.50;99.90
7496;DHT22;3789;47.064;15.482;2023-11-19T09:24:31;5.20;99.90
7496;DHT22;3789;47.064;15.482;2023-11-19T09:27:03;5.00;99.90
7496;DHT22;3789;47.064;15.482;2023-11-19T09:29:34;5.20;99.90
7496;DHT22;3789;47.064;15.482;2023-11-19T09:32:04;5.50;99.90
7496;DHT22;3789;47.064;15.482;2023-11-19T09:34:36;5.60;99.90
7496;DHT22;3789;47.064;15.482;2023-11-19T09:37:06;5.50;99.90
7496;DHT22;3789;47.064;15.482;2023-11-19T09:39:57;5.30;99.90
7496;DHT22;3789;47.064;15.482;2023-11-19T09:42:27;5.40;99.90
7496;DHT22;3789;47.064;15.482;2023-11-19T09:45:14;5.60;99.90
7496;DHT22;3789;47.064;15.482;2023-11-19T09:47:45;5.80;99.90
7496;DHT22;3789;47.064;15.482;2023-11-19T09:50:19;5.90;99.90
7496;DHT22;3789;47.064;15.482;2023-11-19T09:52:48;6.10;99.90
7496;DHT22;3789;47.064;15.482;2023-11-19T09:55:17;6.10;99.90
7496;DHT22;3789;47.064;15.482;2023-11-19T09:57:54;5.90;99.90
7496;DHT22;3789;47.064;15.482;2023-11-19T10:00:25;5.80;99.90
7496;DHT22;3789;47.064;15.482;2023-11-19T10:02:54;5.80;99.90
7496;DHT22;3789;47.064;15.482;2023-11-19T10:05:31;5.90;99.90
7496;DHT22;3789;47.064;15.482;2023-11-19T10:08:03;6.00;99.90
7496;DHT22;3789;47.064;15.482;2023-11-19T10:10:34;6.00;99.90
7496;DHT22;3789;47.064;15.482;2023-11-19T10:13:06;6.00;99.90
7496;DHT22;3789;47.064;15.482;2023-11-19T10:15:41;6.10;99.90
7496;DHT22;3789;47.064;15.482;2023-11-19T10:18:18;6.20;99.90
7496;DHT22;3789;47.064;15.482;2023-11-19T10:20:47;6.20;99.90
7496;DHT22;3789;47.064;15.482;2023-11-19T10:23:18;6.30;99.90
7496;DHT22;3789;47.064;15.482;2023-11-19T10:26:04;6.30;99.90
7496;DHT22;3789;47.064;15.482;2023-11-19T10:28:40;6.30;99.90
7496;DHT22;3789;47.064;15.482;2023-11-19T10:31:15;6.20;99.90
7496;DHT22;3789;47.064;15.482;2023-11-19T10:33:57;6.30;99.90
7496;DHT22;3789;47.064;15.482;2023-11-19T10:36:39;6.30;99.90
7496;DHT22;3789;47.064;15.482;2023-11-19T10:39:12;6.30;99.90
7496;DHT22;3789;47.064;15.482;2023-11-19T10:41:43;6.20;99.90
7496;DHT22;3789;47.064;15.482;2023-11-19T10:44:32;6.30;99.90
7496;DHT22;3789;47.064;15.482;2023-11-19T10:47:08;6.20;99.90
7496;DHT22;3789;47.064;15.482;2023-11-19T10:49:40;6.30;99.90
7496;DHT22;3789;47.064;15.482;2023-11-19T10:52:18;6.50;99.90
7496;DHT22;3789;47.064;15.482;2023-11-19T10:54:51;6.50;99.90
7496;DHT22;3789;47.064;15.482;2023-11-19T10:57:25;6.50;99.90
7496;DHT22;3789;47.064;15.482;2023-11-19T11:00:03;6.80;99.90
7496;DHT22;3789;47.064;15.482;2023-11-19T11:02:42;7.00;99.90
7496;DHT22;3789;47.064;15.482;2023-11-19T11:05:15;7.20;99.90
7496;DHT22;3789;47.064;15.482;2023-11-19T11:07:55;7.10;99.90
7496;DHT22;3789;47.064;15.482;2023-11-19T11:10:28;7.10;99.90
7496;DHT22;3789;47.064;15.482;2023-11-19T11:13:25;7.00;99.90
7496;DHT22;3789;47.064;15.482;2023-11-19T11:15:59;7.10;99.90
7496;DHT22;3789;47.064;15.482;2023-11-19T11:18:29;7.20;99.90
7496;DHT22;3789;47.064;15.482;2023-11-19T11:21:09;7.10;99.90
7496;DHT22;3789;47.064;15.482;2023-11-19T11:32:54;7.30;99.90
7496;DHT22;3789;47.064;15.482;2023-11-19T11:35:55;7.20;99.90
7496;DHT22;3789;47.064;15.482;2023-11-19T11:38:51;7.30;99.90
7496;DHT22;3789;47.064;15.482;2023-11-19T11:41:23;7.40;99.90
7496;DHT22;3789;47.064;15.482;2023-11-19T11:43:59;7.50;99.90
7496;DHT22;3789;47.064;15.482;2023-11-19T11:49:30;7.70;99.90
7496;DHT22;3789;47.064;15.482;2023-11-19T11:52:00;7.80;99.90
7496;DHT22;3789;47.064;15.482;2023-11-19T11:54:33;7.90;99.90
7496;DHT22;3789;47.064;15.482;2023-11-19T11:57:13;7.80;99.90
7496;DHT22;3789;47.064;15.482;2023-11-19T11:59:48;7.70;99.90
7496;DHT22;3789;47.064;15.482;2023-11-19T12:02:22;7.50;99.90
7496;DHT22;3789;47.064;15.482;2023-11-19T12:04:57;7.70;99.90
7496;DHT22;3789;47.064;15.482;2023-11-19T12:07:35;7.80;99.90
7496;DHT22;3789;47.064;15.482;2023-11-19T12:10:09;8.00;99.90
7496;DHT22;3789;47.064;15.482;2023-11-19T12:12:58;8.00;99.90
7496;DHT22;3789;47.064;15.482;2023-11-19T12:15:33;8.20;99.90
7496;DHT22;3789;47.064;15.482;2023-11-19T12:18:30;8.40;99.90
7496;DHT22;3789;47.064;15.482;2023-11-19T12:21:05;8.50;99.90
7496;DHT22;3789;47.064;15.482;2023-11-19T12:23:46;8.30;99.90
7496;DHT22;3789;47.064;15.482;2023-11-19T12:26:43;8.30;99.90
7496;DHT22;3789;47.064;15.482;2023-11-19T12:29:16;8.20;99.90
7496;DHT22;3789;47.064;15.482;2023-11-19T12:31:54;8.20;99.90
7496;DHT22;3789;47.064;15.482;2023-11-19T12:34:42;8.40;99.90
7496;DHT22;3789;47.064;15.482;2023-11-19T12:37:11;8.60;99.90
7496;DHT22;3789;47.064;15.482;2023-11-19T12:39:42;8.60;99.90
7496;DHT22;3789;47.064;15.482;2023-11-19T12:42:10;8.70;99.90
7496;DHT22;3789;47.064;15.482;2023-11-19T12:44:57;8.80;99.90
7496;DHT22;3789;47.064;15.482;2023-11-19T12:47:27;8.80;99.90
7496;DHT22;3789;47.064;15.482;2023-11-19T12:49:59;8.70;99.90
7496;DHT22;3789;47.064;15.482;2023-11-19T12:52:30;8.70;99.90
7496;DHT22;3789;47.064;15.482;2023-11-19T12:54:59;8.70;99.90
7496;DHT22;3789;47.064;15.482;2023-11-19T12:57:55;8.70;99.90
7496;DHT22;3789;47.064;15.482;2023-11-19T13:00:30;9.00;99.90
7496;DHT22;3789;47.064;15.482;2023-11-19T13:02:58;9.10;99.90
7496;DHT22;3789;47.064;15.482;2023-11-19T13:05:33;9.20;99.90
7496;DHT22;3789;47.064;15.482;2023-11-19T13:08:07;9.00;99.90
7496;DHT22;3789;47.064;15.482;2023-11-19T13:10:52;9.00;99.90
7496;DHT22;3789;47.064;15.482;2023-11-19T13:13:23;8.90;99.90
7496;DHT22;3789;47.064;15.482;2023-11-19T13:15:51;9.00;99.90
7496;DHT22;3789;47.064;15.482;2023-11-19T13:18:21;9.00;99.90
7496;DHT22;3789;47.064;15.482;2023-11-19T13:21:10;9.10;99.90
7496;DHT22;3789;47.064;15.482;2023-11-19T13:23:39;9.00;99.90
7496;DHT22;3789;47.064;15.482;2023-11-19T13:26:10;8.90;99.90
7496;DHT22;3789;47.064;15.482;2023-11-19T13:28:44;8.90;99.90
7496;DHT22;3789;47.064;15.482;2023-11-19T13:31:14;8.90;99.90
7496;DHT22;3789;47.064;15.482;2023-11-19T13:33:43;9.00;99.90
7496;DHT22;3789;47.064;15.482;2023-11-19T13:36:11;9.20;99.90
7496;DHT22;3789;47.064;15.482;2023-11-19T13:38:44;9.20;99.90
7496;DHT22;3789;47.064;15.482;2023-11-19T13:41:12;9.00;99.90
7496;DHT22;3789;47.064;15.482;2023-11-19T13:43:41;9.10;99.90
7496;DHT22;3789;47.064;15.482;2023-11-19T13:46:09;9.00;99.90
7496;DHT22;3789;47.064;15.482;2023-11-19T13:48:42;9.20;99.90
7496;DHT22;3789;47.064;15.482;2023-11-19T13:51:15;9.10;99.90
7496;DHT22;3789;47.064;15.482;2023-11-19T13:53:46;9.20;99.90
7496;DHT22;3789;47.064;15.482;2023-11-19T13:56:19;9.20;99.90
7496;DHT22;3789;47.064;15.482;2023-11-19T13:58:52;9.20;99.90
7496;DHT22;3789;47.064;15.482;2023-11-19T14:01:23;9.20;99.90
7496;DHT22;3789;47.064;15.482;2023-11-19T14:03:54;9.20;99.90
7496;DHT22;3789;47.064;15.482;2023-11-19T14:06:28;9.20;99.90
7496;DHT22;3789;47.064;15.482;2023-11-19T14:08:58;9.20;99.90
7496;DHT22;3789;47.064;15.482;2023-11-19T14:11:29;9.20;99.90
7496;DHT22;3789;47.064;15.482;2023-11-19T14:13:58;9.10;99.90
7496;DHT22;3789;47.064;15.482;2023-11-19T14:16:38;9.10;99.90
7496;DHT22;3789;47.064;15.482;2023-11-19T14:19:20;9.10;99.90
7496;DHT22;3789;47.064;15.482;2023-11-19T14:21:49;8.90;99.90
7496;DHT22;3789;47.064;15.482;2023-11-19T14:24:24;9.10;99.90
7496;DHT22;3789;47.064;15.482;2023-11-19T14:26:58;9.20;99.90
7496;DHT22;3789;47.064;15.482;2023-11-19T14:29:28;9.00;99.90
7496;DHT22;3789;47.064;15.482;2023-11-19T14:32:00;9.00;99.90
7496;DHT22;3789;47.064;15.482;2023-11-19T14:34:34;8.90;99.90
7496;DHT22;3789;47.064;15.482;2023-11-19T14:37:07;8.90;99.90
7496;DHT22;3789;47.064;15.482;2023-11-19T14:39:40;9.00;99.90
7496;DHT22;3789;47.064;15.482;2023-11-19T14:42:27;8.70;99.90
7496;DHT22;3789;47.064;15.482;2023-11-19T14:44:58;8.60;99.90
7496;DHT22;3789;47.064;15.482;2023-11-19T14:47:27;8.70;99.90
7496;DHT22;3789;47.064;15.482;2023-11-19T14:49:58;8.80;99.90
7496;DHT22;3789;47.064;15.482;2023-11-19T14:52:26;8.60;99.90
7496;DHT22;3789;47.064;15.482;2023-11-19T14:54:58;8.50;99.90
7496;DHT22;3789;47.064;15.482;2023-11-19T14:57:27;8.40;99.90
7496;DHT22;3789;47.064;15.482;2023-11-19T14:59:55;8.20;99.90
7496;DHT22;3789;47.064;15.482;2023-11-19T15:02:25;8.20;99.90
7496;DHT22;3789;47.064;15.482;2023-11-19T15:05:02;8.20;99.90
7496;DHT22;3789;47.064;15.482;2023-11-19T15:07:31;8.10;99.90
7496;DHT22;3789;47.064;15.482;2023-11-19T15:10:00;8.00;99.90
7496;DHT22;3789;47.064;15.482;2023-11-19T15:12:30;8.20;99.90
7496;DHT22;3789;47.064;15.482;2023-11-19T15:15:02;8.30;99.90
7496;DHT22;3789;47.064;15.482;2023-11-19T15:17:38;8.00;99.90
7496;DHT22;3789;47.064;15.482;2023-11-19T15:20:08;8.00;99.90
7496;DHT22;3789;47.064;15.482;2023-11-19T15:22:39;7.80;99.90
7496;DHT22;3789;47.064;15.482;2023-11-19T15:25:08;7.70;99.90
7496;DHT22;3789;47.064;15.482;2023-11-19T15:27:39;7.70;99.90
7496;DHT22;3789;47.064;15.482;2023-11-19T15:30:14;7.60;99.90
7496;DHT22;3789;47.064;15.482;2023-11-19T15:32:44;7.50;99.90
7496;DHT22;3789;47.064;15.482;2023-11-19T15:35:12;7.50;99.90
7496;DHT22;3789;47.064;15.482;2023-11-19T15:37:44;7.50;99.90
7496;DHT22;3789;47.064;15.482;2023-11-19T15:40:15;7.40;99.90
7496;DHT22;3789;47.064;15.482;2023-11-19T15:42:46;7.20;99.90
7496;DHT22;3789;47.064;15.482;2023-11-19T15:45:17;7.20;99.90
7496;DHT22;3789;47.064;15.482;2023-11-19T15:47:47;7.10;99.90
7496;DHT22;3789;47.064;15.482;2023-11-19T15:50:19;7.10;99.90
7496;DHT22;3789;47.064;15.482;2023-11-19T15:52:56;7.30;99.90
7496;DHT22;3789;47.064;15.482;2023-11-19T15:55:33;7.30;99.90
7496;DHT22;3789;47.064;15.482;2023-11-19T15:58:00;7.10;99.90
7496;DHT22;3789;47.064;15.482;2023-11-19T16:00:30;7.40;99.90
7496;DHT22;3789;47.064;15.482;2023-11-19T16:03:02;7.20;99.90
7496;DHT22;3789;47.064;15.482;2023-11-19T16:05:34;7.00;99.90
7496;DHT22;3789;47.064;15.482;2023-11-19T16:08:03;6.80;99.90
7496;DHT22;3789;47.064;15.482;2023-11-19T16:10:35;6.70;99.90
7496;DHT22;3789;47.064;15.482;2023-11-19T16:13:09;6.70;99.90
7496;DHT22;3789;47.064;15.482;2023-11-19T16:15:41;6.90;99.90
7496;DHT22;3789;47.064;15.482;2023-11-19T16:18:09;7.00;99.90
7496;DHT22;3789;47.064;15.482;2023-11-19T16:20:43;6.90;99.90
7496;DHT22;3789;47.064;15.482;2023-11-19T16:23:14;7.10;99.90
7496;DHT22;3789;47.064;15.482;2023-11-19T16:25:48;7.10;99.90
7496;DHT22;3789;47.064;15.482;2023-11-19T16:28:18;6.90;99.90
7496;DHT22;3789;47.064;15.482;2023-11-19T16:30:51;6.90;99.90
7496;DHT22;3789;47.064;15.482;2023-11-19T16:33:24;7.20;99.90
7496;DHT22;3789;47.064;15.482;2023-11-19T16:36:00;7.00;99.90
7496;DHT22;3789;47.064;15.482;2023-11-19T16:38:34;6.90;99.90
7496;DHT22;3789;47.064;15.482;2023-11-19T16:41:05;6.80;99.90
7496;DHT22;3789;47.064;15.482;2023-11-19T16:43:38;6.70;99.90
7496;DHT22;3789;47.064;15.482;2023-11-19T16:46:08;6.60;99.90
7496;DHT22;3789;47.064;15.482;2023-11-19T16:48:39;6.70;99.90
7496;DHT22;3789;47.064;15.482;2023-11-19T16:51:12;7.00;99.90
7496;DHT22;3789;47.064;15.482;2023-11-19T16:53:50;6.80;99.90
7496;DHT22;3789;47.064;15.482;2023-11-19T16:56:19;6.40;99.90